sensor_id;sensor_type;location;lat;lon;timestamp;pressure;altitude;pressure_sealevel;temperature
67353;BMP180;54238;52.278;21.056;2022-10-16T00:01:51;100565.20;;;15.80
67353;BMP180;54238;52.278;21.056;2022-10-16T00:04:18;100565.00;;;15.80
67353;BMP180;54238;52.278;21.056;2022-10-16T00:06:48;100562.20;;;15.80
67353;BMP180;54238;52.278;21.056;2022-10-16T00:09:17;100565.40;;;15.74
67353;BMP180;54238;52.278;21.056;2022-10-16T00:11:46;100567.20;;;15.70
67353;BMP180;54238;52.278;21.056;2022-10-16T00:14:14;100566.20;;;15.70
67353;BMP180;54238;52.278;21.056;2022-10-16T00:16:42;100568.40;;;15.70
67353;BMP180;54238;52.278;21.056;2022-10-16T00:19:12;100566.20;;;15.70
67353;BMP180;54238;52.278;21.056;2022-10-16T00:21:40;100564.00;;;15.70
67353;BMP180;54238;52.278;21.056;2022-10-16T00:24:10;100559.80;;;15.70
67353;BMP180;54238;52.278;21.056;2022-10-16T00:26:41;100560.80;;;15.70
67353;BMP180;54238;52.278;21.056;2022-10-16T00:29:10;100561.40;;;15.70
67353;BMP180;54238;52.278;21.056;2022-10-16T00:31:39;100563.20;;;15.70
67353;BMP180;54238;52.278;21.056;2022-10-16T00:34:09;100565.80;;;15.70
67353;BMP180;54238;52.278;21.056;2022-10-16T00:36:38;100567.40;;;15.70
67353;BMP180;54238;52.278;21.056;2022-10-16T00:39:05;100568.20;;;15.70
67353;BMP180;54238;52.278;21.056;2022-10-16T00:41:34;100564.20;;;15.70
67353;BMP180;54238;52.278;21.056;2022-10-16T00:47:26;100571.80;;;15.70
67353;BMP180;54238;52.278;21.056;2022-10-16T00:52:44;100584.60;;;15.70
67353;BMP180;54238;52.278;21.056;2022-10-16T00:55:13;100587.00;;;15.60
67353;BMP180;54238;52.278;21.056;2022-10-16T00:57:42;100578.80;;;15.60
67353;BMP180;54238;52.278;21.056;2022-10-16T01:00:16;100576.60;;;15.60
67353;BMP180;54238;52.278;21.056;2022-10-16T01:03:00;100578.40;;;15.60
67353;BMP180;54238;52.278;21.056;2022-10-16T01:05:45;100585.40;;;15.50
67353;BMP180;54238;52.278;21.056;2022-10-16T01:08:43;100586.80;;;15.50
67353;BMP180;54238;52.278;21.056;2022-10-16T01:11:27;100594.60;;;15.50
67353;BMP180;54238;52.278;21.056;2022-10-16T01:14:34;100601.40;;;15.50
67353;BMP180;54238;52.278;21.056;2022-10-16T01:17:16;100592.20;;;15.50
67353;BMP180;54238;52.278;21.056;2022-10-16T01:20:37;100593.20;;;15.50
67353;BMP180;54238;52.278;21.056;2022-10-16T01:29:21;100597.20;;;15.50
67353;BMP180;54238;52.278;21.056;2022-10-16T01:32:02;100601.20;;;15.40
67353;BMP180;54238;52.278;21.056;2022-10-16T01:34:40;100598.00;;;15.40
67353;BMP180;54238;52.278;21.056;2022-10-16T01:37:22;100603.00;;;15.40
67353;BMP180;54238;52.278;21.056;2022-10-16T01:39:56;100599.80;;;15.40
67353;BMP180;54238;52.278;21.056;2022-10-16T01:42:34;100604.80;;;15.40
67353;BMP180;54238;52.278;21.056;2022-10-16T01:45:08;100609.80;;;15.50
67353;BMP180;54238;52.278;21.056;2022-10-16T01:47:39;100610.00;;;15.50
67353;BMP180;54238;52.278;21.056;2022-10-16T01:50:12;100615.40;;;15.50
67353;BMP180;54238;52.278;21.056;2022-10-16T01:52:47;100622.40;;;15.50
67353;BMP180;54238;52.278;21.056;2022-10-16T01:55:22;100620.80;;;15.50
67353;BMP180;54238;52.278;21.056;2022-10-16T01:58:01;100617.40;;;15.50
67353;BMP180;54238;52.278;21.056;2022-10-16T02:00:30;100614.80;;;15.50
67353;BMP180;54238;52.278;21.056;2022-10-16T02:03:04;100607.60;;;15.50
67353;BMP180;54238;52.278;21.056;2022-10-16T02:08:10;100604.00;;;15.40
67353;BMP180;54238;52.278;21.056;2022-10-16T02:10:38;100606.80;;;15.40
67353;BMP180;54238;52.278;21.056;2022-10-16T02:13:17;100599.60;;;15.30
67353;BMP180;54238;52.278;21.056;2022-10-16T02:15:45;100603.00;;;15.30
67353;BMP180;54238;52.278;21.056;2022-10-16T02:18:18;100604.20;;;15.20
67353;BMP180;54238;52.278;21.056;2022-10-16T02:29:22;100598.60;;;15.14
67353;BMP180;54238;52.278;21.056;2022-10-16T02:31:57;100596.60;;;15.12
67353;BMP180;54238;52.278;21.056;2022-10-16T02:34:32;100600.00;;;15.10
67353;BMP180;54238;52.278;21.056;2022-10-16T02:37:04;100600.40;;;15.10
67353;BMP180;54238;52.278;21.056;2022-10-16T02:39:36;100602.00;;;15.10
67353;BMP180;54238;52.278;21.056;2022-10-16T02:42:04;100599.00;;;15.04
67353;BMP180;54238;52.278;21.056;2022-10-16T02:44:31;100601.20;;;15.00
67353;BMP180;54238;52.278;21.056;2022-10-16T02:47:00;100605.40;;;15.00
67353;BMP180;54238;52.278;21.056;2022-10-16T02:49:27;100606.20;;;15.00
67353;BMP180;54238;52.278;21.056;2022-10-16T02:51:54;100608.00;;;15.00
67353;BMP180;54238;52.278;21.056;2022-10-16T02:54:23;100604.20;;;15.00
67353;BMP180;54238;52.278;21.056;2022-10-16T02:56:53;100608.20;;;15.00
67353;BMP180;54238;52.278;21.056;2022-10-16T02:59:20;100608.00;;;14.96
67353;BMP180;54238;52.278;21.056;2022-10-16T03:01:49;100609.80;;;14.96
67353;BMP180;54238;52.278;21.056;2022-10-16T03:04:18;100612.20;;;15.00
67353;BMP180;54238;52.278;21.056;2022-10-16T03:06:48;100611.20;;;15.00
67353;BMP180;54238;52.278;21.056;2022-10-16T03:09:20;100617.40;;;14.94
67353;BMP180;54238;52.278;21.056;2022-10-16T03:11:51;100619.00;;;14.90
67353;BMP180;54238;52.278;21.056;2022-10-16T03:14:23;100619.40;;;14.90
67353;BMP180;54238;52.278;21.056;2022-10-16T03:16:55;100623.20;;;14.90
67353;BMP180;54238;52.278;21.056;2022-10-16T03:19:22;100625.20;;;14.90
67353;BMP180;54238;52.278;21.056;2022-10-16T03:21:49;100633.40;;;14.90
67353;BMP180;54238;52.278;21.056;2022-10-16T03:24:16;100635.60;;;14.90
67353;BMP180;54238;52.278;21.056;2022-10-16T03:26:46;100639.00;;;14.90
67353;BMP180;54238;52.278;21.056;2022-10-16T03:29:17;100645.80;;;14.90
67353;BMP180;54238;52.278;21.056;2022-10-16T03:31:47;100643.60;;;14.90
67353;BMP180;54238;52.278;21.056;2022-10-16T03:34:18;100643.00;;;14.90
67353;BMP180;54238;52.278;21.056;2022-10-16T03:36:48;100641.80;;;14.90
67353;BMP180;54238;52.278;21.056;2022-10-16T03:39:15;100636.80;;;14.90
67353;BMP180;54238;52.278;21.056;2022-10-16T03:41:44;100638.40;;;14.90
67353;BMP180;54238;52.278;21.056;2022-10-16T03:44:15;100642.80;;;14.90
67353;BMP180;54238;52.278;21.056;2022-10-16T03:46:42;100641.80;;;14.90
67353;BMP180;54238;52.278;21.056;2022-10-16T03:49:10;100640.40;;;14.80
67353;BMP180;54238;52.278;21.056;2022-10-16T03:51:44;100637.80;;;14.80
67353;BMP180;54238;52.278;21.056;2022-10-16T03:54:11;100643.20;;;14.80
67353;BMP180;54238;52.278;21.056;2022-10-16T03:56:40;100644.60;;;14.72
67353;BMP180;54238;52.278;21.056;2022-10-16T03:59:07;100645.60;;;14.74
67353;BMP180;54238;52.278;21.056;2022-10-16T04:01:34;100653.40;;;14.74
67353;BMP180;54238;52.278;21.056;2022-10-16T04:04:01;100653.60;;;14.70
67353;BMP180;54238;52.278;21.056;2022-10-16T04:06:31;100646.00;;;14.70
67353;BMP180;54238;52.278;21.056;2022-10-16T04:09:00;100650.00;;;14.70
67353;BMP180;54238;52.278;21.056;2022-10-16T04:11:29;100651.00;;;14.70
67353;BMP180;54238;52.278;21.056;2022-10-16T04:13:59;100647.80;;;14.70
67353;BMP180;54238;52.278;21.056;2022-10-16T04:16:26;100647.40;;;14.60
67353;BMP180;54238;52.278;21.056;2022-10-16T04:18:53;100641.40;;;14.60
67353;BMP180;54238;52.278;21.056;2022-10-16T04:21:20;100648.00;;;14.60
67353;BMP180;54238;52.278;21.056;2022-10-16T04:23:51;100647.40;;;14.50
67353;BMP180;54238;52.278;21.056;2022-10-16T04:26:20;100649.20;;;14.50
67353;BMP180;54238;52.278;21.056;2022-10-16T04:28:52;100650.40;;;14.50
67353;BMP180;54238;52.278;21.056;2022-10-16T04:31:20;100654.20;;;14.50
67353;BMP180;54238;52.278;21.056;2022-10-16T04:33:49;100653.00;;;14.50
67353;BMP180;54238;52.278;21.056;2022-10-16T04:36:16;100650.00;;;14.48
67353;BMP180;54238;52.278;21.056;2022-10-16T04:38:50;100654.80;;;14.40
67353;BMP180;54238;52.278;21.056;2022-10-16T04:41:17;100658.80;;;14.40
67353;BMP180;54238;52.278;21.056;2022-10-16T04:43:44;100658.00;;;14.40
67353;BMP180;54238;52.278;21.056;2022-10-16T04:46:12;100662.80;;;14.40
67353;BMP180;54238;52.278;21.056;2022-10-16T04:48:44;100664.20;;;14.40
67353;BMP180;54238;52.278;21.056;2022-10-16T04:51:13;100663.60;;;14.40
67353;BMP180;54238;52.278;21.056;2022-10-16T04:53:42;100664.00;;;14.40
67353;BMP180;54238;52.278;21.056;2022-10-16T04:56:12;100667.80;;;14.40
67353;BMP180;54238;52.278;21.056;2022-10-16T04:58:41;100669.20;;;14.40
67353;BMP180;54238;52.278;21.056;2022-10-16T05:01:13;100668.80;;;14.34
67353;BMP180;54238;52.278;21.056;2022-10-16T05:03:42;100672.40;;;14.32
67353;BMP180;54238;52.278;21.056;2022-10-16T05:06:14;100674.00;;;14.30
67353;BMP180;54238;52.278;21.056;2022-10-16T05:08:41;100672.00;;;14.30
67353;BMP180;54238;52.278;21.056;2022-10-16T05:11:13;100678.20;;;14.30
67353;BMP180;54238;52.278;21.056;2022-10-16T05:13:46;100683.40;;;14.30
67353;BMP180;54238;52.278;21.056;2022-10-16T05:16:17;100684.20;;;14.30
67353;BMP180;54238;52.278;21.056;2022-10-16T05:18:47;100686.60;;;14.28
67353;BMP180;54238;52.278;21.056;2022-10-16T05:21:17;100690.20;;;14.28
67353;BMP180;54238;52.278;21.056;2022-10-16T05:23:46;100698.20;;;14.22
67353;BMP180;54238;52.278;21.056;2022-10-16T05:26:18;100703.60;;;14.30
67353;BMP180;54238;52.278;21.056;2022-10-16T05:28:46;100702.20;;;14.30
67353;BMP180;54238;52.278;21.056;2022-10-16T05:31:13;100704.60;;;14.30
67353;BMP180;54238;52.278;21.056;2022-10-16T05:33:40;100699.60;;;14.30
67353;BMP180;54238;52.278;21.056;2022-10-16T05:36:11;100704.40;;;14.30
67353;BMP180;54238;52.278;21.056;2022-10-16T05:38:42;100706.80;;;14.30
67353;BMP180;54238;52.278;21.056;2022-10-16T05:41:09;100707.60;;;14.30
67353;BMP180;54238;52.278;21.056;2022-10-16T05:43:39;100704.20;;;14.30
67353;BMP180;54238;52.278;21.056;2022-10-16T05:46:10;100698.20;;;14.30
67353;BMP180;54238;52.278;21.056;2022-10-16T05:48:38;100696.00;;;14.30
67353;BMP180;54238;52.278;21.056;2022-10-16T05:51:08;100704.40;;;14.36
67353;BMP180;54238;52.278;21.056;2022-10-16T05:53:40;100698.60;;;14.40
67353;BMP180;54238;52.278;21.056;2022-10-16T05:56:10;100706.00;;;14.40
67353;BMP180;54238;52.278;21.056;2022-10-16T05:58:42;100704.00;;;14.40
67353;BMP180;54238;52.278;21.056;2022-10-16T06:01:18;100709.60;;;14.40
67353;BMP180;54238;52.278;21.056;2022-10-16T06:03:46;100716.40;;;14.40
67353;BMP180;54238;52.278;21.056;2022-10-16T06:06:22;100721.20;;;14.40
67353;BMP180;54238;52.278;21.056;2022-10-16T06:08:53;100723.00;;;14.40
67353;BMP180;54238;52.278;21.056;2022-10-16T06:11:27;100732.00;;;14.40
67353;BMP180;54238;52.278;21.056;2022-10-16T06:13:57;100732.40;;;14.40
67353;BMP180;54238;52.278;21.056;2022-10-16T06:16:26;100736.60;;;14.40
67353;BMP180;54238;52.278;21.056;2022-10-16T06:18:55;100738.00;;;14.44
67353;BMP180;54238;52.278;21.056;2022-10-16T06:21:28;100738.80;;;14.50
67353;BMP180;54238;52.278;21.056;2022-10-16T06:23:56;100737.00;;;14.50
67353;BMP180;54238;52.278;21.056;2022-10-16T06:26:32;100738.60;;;14.56
67353;BMP180;54238;52.278;21.056;2022-10-16T06:29:00;100738.20;;;14.60
67353;BMP180;54238;52.278;21.056;2022-10-16T06:31:32;100734.20;;;14.60
67353;BMP180;54238;52.278;21.056;2022-10-16T06:34:02;100740.80;;;14.60
67353;BMP180;54238;52.278;21.056;2022-10-16T06:36:31;100742.40;;;14.60
67353;BMP180;54238;52.278;21.056;2022-10-16T06:39:03;100739.20;;;14.70
67353;BMP180;54238;52.278;21.056;2022-10-16T06:41:30;100748.80;;;14.70
67353;BMP180;54238;52.278;21.056;2022-10-16T06:44:04;100751.60;;;14.72
67353;BMP180;54238;52.278;21.056;2022-10-16T06:46:31;100753.40;;;14.80
67353;BMP180;54238;52.278;21.056;2022-10-16T06:49:00;100752.00;;;14.80
67353;BMP180;54238;52.278;21.056;2022-10-16T06:51:27;100757.00;;;14.90
67353;BMP180;54238;52.278;21.056;2022-10-16T06:53:55;100748.20;;;14.92
67353;BMP180;54238;52.278;21.056;2022-10-16T06:56:27;100762.00;;;15.00
67353;BMP180;54238;52.278;21.056;2022-10-16T06:58:54;100760.60;;;15.10
67353;BMP180;54238;52.278;21.056;2022-10-16T07:01:25;100753.00;;;15.20
67353;BMP180;54238;52.278;21.056;2022-10-16T07:03:57;100755.60;;;15.30
67353;BMP180;54238;52.278;21.056;2022-10-16T07:06:26;100758.80;;;15.40
67353;BMP180;54238;52.278;21.056;2022-10-16T07:08:55;100767.20;;;15.50
67353;BMP180;54238;52.278;21.056;2022-10-16T07:11:25;100769.60;;;15.70
67353;BMP180;54238;52.278;21.056;2022-10-16T07:13:57;100772.40;;;15.78
67353;BMP180;54238;52.278;21.056;2022-10-16T07:16:29;100775.00;;;15.88
67353;BMP180;54238;52.278;21.056;2022-10-16T07:18:59;100778.80;;;15.90
67353;BMP180;54238;52.278;21.056;2022-10-16T07:21:33;100787.40;;;16.00
67353;BMP180;54238;52.278;21.056;2022-10-16T07:24:06;100798.40;;;16.00
67353;BMP180;54238;52.278;21.056;2022-10-16T07:26:37;100799.60;;;16.00
67353;BMP180;54238;52.278;21.056;2022-10-16T07:29:20;100801.60;;;16.04
67353;BMP180;54238;52.278;21.056;2022-10-16T07:31:49;100799.00;;;16.06
67353;BMP180;54238;52.278;21.056;2022-10-16T07:34:18;100790.00;;;16.10
67353;BMP180;54238;52.278;21.056;2022-10-16T07:36:50;100779.60;;;16.10
67353;BMP180;54238;52.278;21.056;2022-10-16T07:39:20;100775.00;;;16.20
67353;BMP180;54238;52.278;21.056;2022-10-16T07:41:49;100769.80;;;16.30
67353;BMP180;54238;52.278;21.056;2022-10-16T07:44:16;100774.60;;;16.34
67353;BMP180;54238;52.278;21.056;2022-10-16T07:46:43;100777.40;;;16.40
67353;BMP180;54238;52.278;21.056;2022-10-16T07:49:10;100768.00;;;16.40
67353;BMP180;54238;52.278;21.056;2022-10-16T07:51:37;100767.60;;;16.50
67353;BMP180;54238;52.278;21.056;2022-10-16T07:54:09;100764.00;;;16.70
67353;BMP180;54238;52.278;21.056;2022-10-16T07:56:42;100763.20;;;17.04
67353;BMP180;54238;52.278;21.056;2022-10-16T07:59:12;100771.60;;;17.30
67353;BMP180;54238;52.278;21.056;2022-10-16T08:01:41;100766.80;;;17.50
67353;BMP180;54238;52.278;21.056;2022-10-16T08:04:11;100768.00;;;17.58
67353;BMP180;54238;52.278;21.056;2022-10-16T08:06:40;100785.80;;;17.60
67353;BMP180;54238;52.278;21.056;2022-10-16T08:09:09;100779.80;;;17.70
67353;BMP180;54238;52.278;21.056;2022-10-16T08:11:41;100779.60;;;17.70
67353;BMP180;54238;52.278;21.056;2022-10-16T08:14:07;100786.20;;;17.70
67353;BMP180;54238;52.278;21.056;2022-10-16T08:16:37;100796.20;;;17.70
67353;BMP180;54238;52.278;21.056;2022-10-16T08:19:04;100798.40;;;17.86
67353;BMP180;54238;52.278;21.056;2022-10-16T08:21:31;100799.00;;;18.00
67353;BMP180;54238;52.278;21.056;2022-10-16T08:23:58;100795.20;;;18.18
67353;BMP180;54238;52.278;21.056;2022-10-16T08:26:26;100795.80;;;18.40
67353;BMP180;54238;52.278;21.056;2022-10-16T08:28:56;100798.00;;;18.70
67353;BMP180;54238;52.278;21.056;2022-10-16T08:31:29;100804.60;;;18.90
67353;BMP180;54238;52.278;21.056;2022-10-16T08:33:58;100810.40;;;18.92
67353;BMP180;54238;52.278;21.056;2022-10-16T08:36:27;100815.00;;;19.00
67353;BMP180;54238;52.278;21.056;2022-10-16T08:38:55;100811.40;;;19.10
67353;BMP180;54238;52.278;21.056;2022-10-16T08:47:23;100822.20;;;19.50
67353;BMP180;54238;52.278;21.056;2022-10-16T08:50:08;100821.80;;;19.60
67353;BMP180;54238;52.278;21.056;2022-10-16T08:52:43;100820.40;;;19.70
67353;BMP180;54238;52.278;21.056;2022-10-16T08:55:29;100827.20;;;19.80
67353;BMP180;54238;52.278;21.056;2022-10-16T08:58:00;100835.00;;;19.80
67353;BMP180;54238;52.278;21.056;2022-10-16T09:00:35;100832.60;;;19.90
67353;BMP180;54238;52.278;21.056;2022-10-16T09:03:14;100834.00;;;20.00
67353;BMP180;54238;52.278;21.056;2022-10-16T09:18:27;100842.40;;;21.00
67353;BMP180;54238;52.278;21.056;2022-10-16T09:21:01;100833.00;;;21.10
67353;BMP180;54238;52.278;21.056;2022-10-16T09:23:37;100831.40;;;21.20
67353;BMP180;54238;52.278;21.056;2022-10-16T09:26:10;100823.80;;;21.66
67353;BMP180;54238;52.278;21.056;2022-10-16T09:28:39;100815.80;;;22.26
67353;BMP180;54238;52.278;21.056;2022-10-16T09:31:20;100830.20;;;22.60
67353;BMP180;54238;52.278;21.056;2022-10-16T09:34:05;100832.00;;;22.94
67353;BMP180;54238;52.278;21.056;2022-10-16T09:36:41;100830.00;;;23.10
67353;BMP180;54238;52.278;21.056;2022-10-16T09:39:11;100823.80;;;23.10
67353;BMP180;54238;52.278;21.056;2022-10-16T09:41:44;100827.80;;;22.90
67353;BMP180;54238;52.278;21.056;2022-10-16T09:44:25;100822.60;;;22.78
67353;BMP180;54238;52.278;21.056;2022-10-16T09:47:12;100829.20;;;22.64
67353;BMP180;54238;52.278;21.056;2022-10-16T09:49:55;100827.80;;;22.50
67353;BMP180;54238;52.278;21.056;2022-10-16T09:52:26;100826.40;;;22.40
67353;BMP180;54238;52.278;21.056;2022-10-16T09:55:12;100838.60;;;22.30
67353;BMP180;54238;52.278;21.056;2022-10-16T09:57:51;100844.60;;;22.20
67353;BMP180;54238;52.278;21.056;2022-10-16T10:00:23;100836.40;;;22.30
67353;BMP180;54238;52.278;21.056;2022-10-16T10:02:51;100840.40;;;22.60
67353;BMP180;54238;52.278;21.056;2022-10-16T10:05:28;100836.80;;;22.72
67353;BMP180;54238;52.278;21.056;2022-10-16T10:08:01;100833.80;;;22.80
67353;BMP180;54238;52.278;21.056;2022-10-16T10:10:42;100834.20;;;22.90
67353;BMP180;54238;52.278;21.056;2022-10-16T10:13:26;100843.60;;;22.90
67353;BMP180;54238;52.278;21.056;2022-10-16T10:15:58;100839.40;;;22.80
67353;BMP180;54238;52.278;21.056;2022-10-16T10:18:25;100836.20;;;22.80
67353;BMP180;54238;52.278;21.056;2022-10-16T10:21:03;100836.60;;;23.00
67353;BMP180;54238;52.278;21.056;2022-10-16T10:23:37;100838.40;;;23.20
67353;BMP180;54238;52.278;21.056;2022-10-16T10:26:24;100826.40;;;23.30
67353;BMP180;54238;52.278;21.056;2022-10-16T10:32:43;100819.40;;;23.40
67353;BMP180;54238;52.278;21.056;2022-10-16T10:38:06;100819.60;;;23.48
67353;BMP180;54238;52.278;21.056;2022-10-16T10:47:24;100820.00;;;23.02
67353;BMP180;54238;52.278;21.056;2022-10-16T10:50:22;100827.00;;;22.76
67353;BMP180;54238;52.278;21.056;2022-10-16T10:56:55;100817.60;;;22.40
67353;BMP180;54238;52.278;21.056;2022-10-16T10:59:48;100814.60;;;22.30
67353;BMP180;54238;52.278;21.056;2022-10-16T11:08:27;100816.00;;;22.80
67353;BMP180;54238;52.278;21.056;2022-10-16T11:11:05;100812.20;;;23.10
67353;BMP180;54238;52.278;21.056;2022-10-16T11:14:03;100812.00;;;23.30
67353;BMP180;54238;52.278;21.056;2022-10-16T11:16:54;100817.60;;;23.60
67353;BMP180;54238;52.278;21.056;2022-10-16T11:20:37;100824.60;;;23.70
67353;BMP180;54238;52.278;21.056;2022-10-16T11:23:25;100818.00;;;23.80
67353;BMP180;54238;52.278;21.056;2022-10-16T11:26:09;100819.60;;;23.90
67353;BMP180;54238;52.278;21.056;2022-10-16T11:28:49;100823.40;;;24.00
67353;BMP180;54238;52.278;21.056;2022-10-16T11:37:08;100822.80;;;24.10
67353;BMP180;54238;52.278;21.056;2022-10-16T11:39:40;100830.20;;;24.02
67353;BMP180;54238;52.278;21.056;2022-10-16T11:42:21;100835.20;;;24.00
67353;BMP180;54238;52.278;21.056;2022-10-16T11:45:00;100832.60;;;23.90
67353;BMP180;54238;52.278;21.056;2022-10-16T11:47:48;100819.00;;;23.94
67353;BMP180;54238;52.278;21.056;2022-10-16T11:50:39;100821.20;;;24.64
67353;BMP180;54238;52.278;21.056;2022-10-16T11:53:35;100816.20;;;25.34
67353;BMP180;54238;52.278;21.056;2022-10-16T11:56:07;100820.40;;;25.94
67353;BMP180;54238;52.278;21.056;2022-10-16T12:01:28;100810.80;;;26.30
67353;BMP180;54238;52.278;21.056;2022-10-16T12:07:12;100822.20;;;26.20
67353;BMP180;54238;52.278;21.056;2022-10-16T12:09:44;100824.00;;;25.90
67353;BMP180;54238;52.278;21.056;2022-10-16T12:12:43;100817.40;;;25.70
67353;BMP180;54238;52.278;21.056;2022-10-16T12:15:30;100816.80;;;25.36
67353;BMP180;54238;52.278;21.056;2022-10-16T12:18:00;100825.60;;;25.10
67353;BMP180;54238;52.278;21.056;2022-10-16T12:20:33;100833.20;;;24.84
67353;BMP180;54238;52.278;21.056;2022-10-16T12:23:06;100844.20;;;24.78
67353;BMP180;54238;52.278;21.056;2022-10-16T12:25:40;100843.80;;;24.60
67353;BMP180;54238;52.278;21.056;2022-10-16T12:28:26;100840.00;;;24.70
67353;BMP180;54238;52.278;21.056;2022-10-16T12:30:59;100853.40;;;24.60
67353;BMP180;54238;52.278;21.056;2022-10-16T12:35:54;100834.60;;;24.40
67353;BMP180;54238;52.278;21.056;2022-10-16T12:38:48;100837.60;;;24.30
67353;BMP180;54238;52.278;21.056;2022-10-16T12:41:32;100841.60;;;24.32
67353;BMP180;54238;52.278;21.056;2022-10-16T12:44:01;100842.60;;;24.30
67353;BMP180;54238;52.278;21.056;2022-10-16T12:51:42;100851.60;;;24.00
67353;BMP180;54238;52.278;21.056;2022-10-16T12:54:21;100858.20;;;23.90
67353;BMP180;54238;52.278;21.056;2022-10-16T13:17:14;100852.20;;;22.20
67353;BMP180;54238;52.278;21.056;2022-10-16T13:20:18;100855.80;;;22.06
67353;BMP180;54238;52.278;21.056;2022-10-16T13:28:22;100868.20;;;21.68
67353;BMP180;54238;52.278;21.056;2022-10-16T13:30:58;100867.40;;;21.50
67353;BMP180;54238;52.278;21.056;2022-10-16T13:33:33;100877.80;;;21.50
67353;BMP180;54238;52.278;21.056;2022-10-16T13:36:06;100872.80;;;21.40
67353;BMP180;54238;52.278;21.056;2022-10-16T13:38:45;100876.60;;;21.30
67353;BMP180;54238;52.278;21.056;2022-10-16T13:41:18;100871.60;;;21.30
67353;BMP180;54238;52.278;21.056;2022-10-16T13:43:53;100867.60;;;21.20
67353;BMP180;54238;52.278;21.056;2022-10-16T13:46:28;100871.40;;;21.18
67353;BMP180;54238;52.278;21.056;2022-10-16T13:49:05;100875.80;;;21.10
67353;BMP180;54238;52.278;21.056;2022-10-16T13:51:33;100879.20;;;21.10
67353;BMP180;54238;52.278;21.056;2022-10-16T13:54:04;100888.40;;;21.02
67353;BMP180;54238;52.278;21.056;2022-10-16T13:56:38;100881.40;;;21.00
67353;BMP180;54238;52.278;21.056;2022-10-16T13:59:35;100879.60;;;21.00
67353;BMP180;54238;52.278;21.056;2022-10-16T14:02:29;100876.20;;;21.00
67353;BMP180;54238;52.278;21.056;2022-10-16T14:05:09;100859.40;;;20.98
67353;BMP180;54238;52.278;21.056;2022-10-16T14:07:38;100858.00;;;20.98
67353;BMP180;54238;52.278;21.056;2022-10-16T14:10:27;100867.20;;;21.00
67353;BMP180;54238;52.278;21.056;2022-10-16T14:13:05;100865.60;;;21.00
67353;BMP180;54238;52.278;21.056;2022-10-16T14:15:36;100875.20;;;21.00
67353;BMP180;54238;52.278;21.056;2022-10-16T14:18:06;100872.40;;;21.00
67353;BMP180;54238;52.278;21.056;2022-10-16T14:20:34;100872.80;;;21.00
67353;BMP180;54238;52.278;21.056;2022-10-16T14:23:32;100868.80;;;20.90
67353;BMP180;54238;52.278;21.056;2022-10-16T14:28:44;100878.00;;;20.90
67353;BMP180;54238;52.278;21.056;2022-10-16T14:31:27;100879.40;;;20.90
67353;BMP180;54238;52.278;21.056;2022-10-16T14:33:58;100890.20;;;20.90
67353;BMP180;54238;52.278;21.056;2022-10-16T14:36:27;100888.00;;;20.90
67353;BMP180;54238;52.278;21.056;2022-10-16T14:39:13;100890.80;;;20.90
67353;BMP180;54238;52.278;21.056;2022-10-16T14:41:50;100888.40;;;20.90
67353;BMP180;54238;52.278;21.056;2022-10-16T14:44:29;100885.60;;;20.90
67353;BMP180;54238;52.278;21.056;2022-10-16T14:46:57;100890.60;;;20.90
67353;BMP180;54238;52.278;21.056;2022-10-16T14:49:28;100898.20;;;20.90
67353;BMP180;54238;52.278;21.056;2022-10-16T14:51:58;100896.40;;;20.90
67353;BMP180;54238;52.278;21.056;2022-10-16T14:54:28;100895.20;;;20.80
67353;BMP180;54238;52.278;21.056;2022-10-16T14:56:57;100896.40;;;20.80
67353;BMP180;54238;52.278;21.056;2022-10-16T14:59:38;100896.80;;;20.80
67353;BMP180;54238;52.278;21.056;2022-10-16T15:02:38;100899.60;;;20.80
67353;BMP180;54238;52.278;21.056;2022-10-16T15:05:20;100898.40;;;20.80
67353;BMP180;54238;52.278;21.056;2022-10-16T15:07:54;100896.20;;;20.80
67353;BMP180;54238;52.278;21.056;2022-10-16T15:10:27;100895.80;;;20.80
67353;BMP180;54238;52.278;21.056;2022-10-16T15:13:05;100893.80;;;20.80
67353;BMP180;54238;52.278;21.056;2022-10-16T15:15:36;100900.20;;;20.74
67353;BMP180;54238;52.278;21.056;2022-10-16T15:18:04;100910.60;;;20.70
67353;BMP180;54238;52.278;21.056;2022-10-16T15:20:38;100910.00;;;20.70
67353;BMP180;54238;52.278;21.056;2022-10-16T15:23:14;100909.60;;;20.70
67353;BMP180;54238;52.278;21.056;2022-10-16T15:25:46;100914.60;;;20.60
67353;BMP180;54238;52.278;21.056;2022-10-16T15:28:19;100914.00;;;20.60
67353;BMP180;54238;52.278;21.056;2022-10-16T15:30:51;100919.80;;;20.60
67353;BMP180;54238;52.278;21.056;2022-10-16T15:33:25;100915.40;;;20.54
67353;BMP180;54238;52.278;21.056;2022-10-16T15:35:54;100917.00;;;20.50
67353;BMP180;54238;52.278;21.056;2022-10-16T15:38:30;100914.20;;;20.50
67353;BMP180;54238;52.278;21.056;2022-10-16T15:41:02;100913.00;;;20.50
67353;BMP180;54238;52.278;21.056;2022-10-16T15:43:33;100911.00;;;20.48
67353;BMP180;54238;52.278;21.056;2022-10-16T15:46:13;100917.80;;;20.40
67353;BMP180;54238;52.278;21.056;2022-10-16T15:48:41;100922.40;;;20.40
67353;BMP180;54238;52.278;21.056;2022-10-16T15:51:12;100920.40;;;20.40
67353;BMP180;54238;52.278;21.056;2022-10-16T15:53:42;100925.00;;;20.40
67353;BMP180;54238;52.278;21.056;2022-10-16T15:56:13;100926.80;;;20.40
67353;BMP180;54238;52.278;21.056;2022-10-16T15:58:40;100928.00;;;20.40
67353;BMP180;54238;52.278;21.056;2022-10-16T16:01:12;100925.20;;;20.40
67353;BMP180;54238;52.278;21.056;2022-10-16T16:03:39;100929.80;;;20.40
67353;BMP180;54238;52.278;21.056;2022-10-16T16:06:10;100932.80;;;20.40
67353;BMP180;54238;52.278;21.056;2022-10-16T16:08:42;100934.80;;;20.38
67353;BMP180;54238;52.278;21.056;2022-10-16T16:11:15;100937.80;;;20.30
67353;BMP180;54238;52.278;21.056;2022-10-16T16:13:47;100942.00;;;20.30